Time;durP1;ratioP1;P1;durP2;ratioP2;P2;SDS_P1;SDS_P2;PMS_P1;PMS_P2;Temp;Humidity;BMP_temperature;BMP_pressure;BME280_temperature;BME280_humidity;BME280_pressure;Samples;Min_cycle;Max_cycle;Signal;HPM_P1;HPM_P2
2021/12/14 00:01:31;;;;;;;4.90;3.67;;;;;;;9.09;100.00;101746.84;8328334;28;20405;-64
2021/12/14 00:05:33;;;;;;;5.90;3.80;;;;;;;9.05;100.00;101734.50;8327936;28;20034;-64
2021/12/14 00:09:36;;;;;;;7.25;4.85;;;;;;;8.97;100.00;101740.41;8327648;28;20030;-64
2021/12/14 00:17:56;;;;;;;9.90;6.20;;;;;;;9.15;100.00;101746.44;8394850;27;20387;-64
2021/12/14 00:22:03;;;;;;;8.88;5.55;;;;;;;9.30;100.00;101746.28;8385610;28;20508;-64
2021/12/14 00:26:04;;;;;;;9.43;5.63;;;;;;;9.39;100.00;101756.44;8413538;27;20458;-63
2021/12/14 00:30:07;;;;;;;10.73;5.90;;;;;;;9.34;100.00;101747.78;8417440;27;20362;-64
2021/12/14 00:34:08;;;;;;;9.20;5.72;;;;;;;9.26;100.00;101749.28;8424536;27;20039;-64
2021/12/14 00:38:11;;;;;;;7.65;5.05;;;;;;;9.21;100.00;101748.75;8418537;27;20407;-64
2021/12/14 00:42:12;;;;;;;8.27;5.40;;;;;;;9.18;100.00;101751.63;8418391;27;20232;-64
2021/12/14 00:46:14;;;;;;;7.97;6.05;;;;;;;9.14;100.00;101752.78;8418358;27;20035;-63
2021/12/14 00:50:16;;;;;;;10.40;5.97;;;;;;;9.24;100.00;101756.63;8418319;27;20051;-64
2021/12/14 00:54:17;;;;;;;12.48;6.90;;;;;;;9.33;100.00;101735.28;8418248;27;20033;-64
2021/12/14 00:58:20;;;;;;;10.63;6.55;;;;;;;9.28;100.00;101723.94;8417855;27;20040;-64
2021/12/14 01:02:23;;;;;;;11.80;7.05;;;;;;;9.29;100.00;101719.38;8400894;27;20067;-64
2021/12/14 01:06:28;;;;;;;10.90;6.10;;;;;;;9.34;100.00;101730.75;8404128;27;20059;-64
2021/12/14 01:10:38;;;;;;;12.43;7.05;;;;;;;9.44;100.00;101731.84;8384241;28;20174;-64
2021/12/14 01:14:47;;;;;;;13.80;6.82;;;;;;;9.46;100.00;101736.16;8351331;28;20053;-64
2021/12/14 01:19:01;;;;;;;13.52;7.03;;;;;;;9.39;100.00;101728.59;8350245;28;20045;-64
2021/12/14 01:23:13;;;;;;;11.23;6.57;;;;;;;9.41;100.00;101729.34;8350807;28;20036;-64
2021/12/14 01:27:21;;;;;;;8.63;5.28;;;;;;;9.49;100.00;101733.25;8349109;28;20041;-64
2021/12/14 01:31:37;;;;;;;8.98;6.00;;;;;;;9.47;100.00;101716.31;8362213;28;20041;-64
2021/12/14 01:35:42;;;;;;;9.93;5.72;;;;;;;9.52;100.00;101713.31;8360392;28;20112;-64
2021/12/14 01:39:58;;;;;;;7.07;4.97;;;;;;;9.53;100.00;101723.13;8361814;28;20086;-64
2021/12/14 01:43:59;;;;;;;7.32;4.80;;;;;;;9.60;99.80;101744.22;8361786;28;20716;-64
2021/12/14 01:47:59;;;;;;;7.65;4.88;;;;;;;9.68;99.07;101751.78;8361633;28;20447;-64
2021/12/14 01:52:05;;;;;;;8.45;5.50;;;;;;;9.74;98.12;101754.06;8361503;28;20045;-64
2021/12/14 01:56:10;;;;;;;9.05;5.57;;;;;;;9.69;98.96;101754.38;8335986;28;20124;-64
2021/12/14 02:00:17;;;;;;;9.52;6.03;;;;;;;9.66;99.12;101749.19;8360906;28;20041;-64
2021/12/14 02:04:20;;;;;;;11.35;6.00;;;;;;;9.65;99.10;101746.59;8327825;28;20107;-64
2021/12/14 02:08:28;;;;;;;12.75;6.82;;;;;;;9.61;99.88;101739.69;8327811;28;20041;-64
2021/12/14 02:12:31;;;;;;;11.18;6.97;;;;;;;9.63;99.75;101726.94;8327786;28;20051;-64
2021/12/14 02:16:33;;;;;;;13.65;8.23;;;;;;;9.66;100.00;101732.13;8325967;28;20065;-64
2021/12/14 02:20:38;;;;;;;16.25;9.25;;;;;;;9.70;99.93;101728.25;8327217;28;20058;-64
2021/12/14 02:24:43;;;;;;;14.98;8.95;;;;;;;9.63;100.00;101716.13;8327475;28;20121;-63
2021/12/14 02:28:44;;;;;;;19.40;10.30;;;;;;;9.62;100.00;101714.41;8327313;28;20057;-64
2021/12/14 02:32:45;;;;;;;18.10;10.73;;;;;;;9.63;100.00;101721.53;8348310;28;20040;-64
2021/12/14 02:36:48;;;;;;;21.50;11.35;;;;;;;9.60;100.00;101732.53;8359703;28;20049;-64
2021/12/14 02:40:54;;;;;;;21.80;11.77;;;;;;;9.58;100.00;101721.00;8359142;28;20479;-64
2021/12/14 02:44:55;;;;;;;22.50;12.30;;;;;;;9.51;100.00;101717.84;8351044;28;20269;-64
2021/12/14 02:49:00;;;;;;;21.58;10.88;;;;;;;9.46;100.00;101700.25;8329789;28;20042;-66
2021/12/14 02:53:00;;;;;;;23.27;12.32;;;;;;;9.52;100.00;101686.31;8342086;28;20037;-66
2021/12/14 02:57:08;;;;;;;23.95;12.57;;;;;;;9.52;100.00;101670.97;8326728;28;20120;-66
2021/12/14 03:01:12;;;;;;;22.55;12.13;;;;;;;9.57;100.00;101673.34;8334747;28;20036;-66
2021/12/14 03:05:20;;;;;;;24.00;12.32;;;;;;;9.55;100.00;101665.34;8360021;28;20048;-66
2021/12/14 03:09:38;;;;;;;25.85;11.88;;;;;;;9.50;100.00;101639.66;8359249;28;20037;-66
2021/12/14 03:13:43;;;;;;;23.90;11.93;;;;;;;9.43;100.00;101638.38;8359581;28;20029;-66
2021/12/14 03:23:06;;;;;;;26.27;13.63;;;;;;;9.39;100.00;101669.22;8355695;28;20068;-64
2021/12/14 03:27:07;;;;;;;23.80;11.77;;;;;;;9.39;100.00;101648.50;8376625;28;20090;-64
2021/12/14 03:35:21;;;;;;;28.75;13.65;;;;;;;9.44;100.00;101640.09;8337803;27;20471;-63
2021/12/14 03:39:29;;;;;;;31.40;13.68;;;;;;;9.43;100.00;101651.84;8335281;28;20034;-63
2021/12/14 03:43:30;;;;;;;28.98;13.10;;;;;;;9.50;100.00;101663.94;8319954;28;20041;-64
2021/12/14 03:47:35;;;;;;;30.13;13.90;;;;;;;9.49;100.00;101648.75;8319833;28;20547;-64
2021/12/14 03:51:36;;;;;;;29.63;14.27;;;;;;;9.45;100.00;101631.00;8319467;28;20068;-64
2021/12/14 03:55:42;;;;;;;31.73;13.48;;;;;;;9.43;100.00;101641.06;8319003;28;20046;-64
2021/12/14 03:59:43;;;;;;;32.38;13.27;;;;;;;9.43;100.00;101627.56;8319662;28;20038;-64
2021/12/14 04:03:47;;;;;;;33.42;13.27;;;;;;;9.40;100.00;101627.78;8319494;28;20048;-64
2021/12/14 04:07:48;;;;;;;29.95;13.43;;;;;;;9.38;100.00;101635.09;8319201;28;20054;-64
2021/12/14 04:11:49;;;;;;;26.58;12.43;;;;;;;9.40;100.00;101638.56;8319182;28;20129;-63
2021/12/14 04:15:51;;;;;;;28.88;12.63;;;;;;;9.39;100.00;101647.63;8319106;28;20501;-64
2021/12/14 04:19:52;;;;;;;29.20;13.27;;;;;;;9.36;100.00;101650.53;8319051;28;20038;-64
2021/12/14 04:23:52;;;;;;;29.92;13.73;;;;;;;9.34;100.00;101660.59;8324126;28;20044;-64
2021/12/14 04:27:54;;;;;;;31.85;14.68;;;;;;;9.23;100.00;101652.34;8336008;28;20040;-64
2021/12/14 04:31:55;;;;;;;31.20;13.90;;;;;;;9.18;100.00;101659.91;8318411;28;20037;-64
2021/12/14 04:35:57;;;;;;;30.25;13.88;;;;;;;9.18;100.00;101659.91;8318417;28;20048;-63
2021/12/14 04:40:14;;;;;;;30.35;13.93;;;;;;;9.25;100.00;101664.78;8318292;28;20491;-64
2021/12/14 04:53:25;;;;;;;29.60;13.45;;;;;;;9.19;100.00;101667.91;8298492;28;20057;-64
2021/12/14 04:57:29;;;;;;;28.85;12.40;;;;;;;9.19;100.00;101683.22;8295508;28;20547;-64
2021/12/14 05:01:33;;;;;;;24.90;12.10;;;;;;;9.25;100.00;101691.75;8292880;28;20030;-64
2021/12/14 05:05:45;;;;;;;27.35;12.40;;;;;;;9.23;100.00;101688.28;8291029;28;20037;-63
2021/12/14 05:09:45;;;;;;;26.77;11.90;;;;;;;9.27;100.00;101702.47;8297084;28;20041;-64
2021/12/14 05:13:50;;;;;;;26.65;12.25;;;;;;;9.27;100.00;101691.66;8297360;28;20399;-64
2021/12/14 05:17:50;;;;;;;26.23;12.00;;;;;;;9.25;100.00;101699.00;8297008;28;20096;-64
2021/12/14 05:21:53;;;;;;;30.33;12.23;;;;;;;9.23;100.00;101696.38;8322803;28;20025;-64
2021/12/14 05:25:54;;;;;;;32.33;13.27;;;;;;;9.20;100.00;101693.91;8312754;28;20050;-64
2021/12/14 05:30:05;;;;;;;33.65;13.13;;;;;;;9.17;100.00;101687.84;8300212;28;20033;-64
2021/12/14 05:34:05;;;;;;;33.25;13.05;;;;;;;9.14;100.00;101688.91;8290549;28;20034;-63
2021/12/14 05:38:12;;;;;;;31.52;12.57;;;;;;;9.14;100.00;101679.94;8291673;28;20035;-63
2021/12/14 05:43:14;;;;;;;29.63;12.30;;;;;;;9.15;100.00;101687.09;8290733;28;20054;-64
2021/12/14 05:46:35;;;;;;;42.22;12.55;;;;;;;9.09;100.00;101691.03;8295814;28;20519;-64
2021/12/14 05:50:43;;;;;;;38.15;14.50;;;;;;;9.07;100.00;101700.22;8302811;28;20041;-64
2021/12/14 05:54:44;;;;;;;33.85;13.70;;;;;;;9.06;100.00;101688.56;8289406;28;20563;-64
2021/12/14 05:58:46;;;;;;;33.28;13.70;;;;;;;9.11;100.00;101680.16;8290985;28;20045;-64
2021/12/14 06:02:47;;;;;;;37.20;13.23;;;;;;;9.05;100.00;101675.16;8297916;28;20045;-64
2021/12/14 06:06:52;;;;;;;34.90;13.57;;;;;;;9.02;100.00;101678.94;8306639;28;20700;-64
2021/12/14 06:10:53;;;;;;;;;;;;;;;9.05;100.00;101672.47;8299151;28;20042;-64
2021/12/14 06:14:55;;;;;;;42.33;14.07;;;;;;;8.99;100.00;101667.47;8290476;28;19917;-64
2021/12/14 06:23:28;;;;;;;37.03;13.63;;;;;;;8.96;100.00;101665.88;8411311;27;20462;-64
2021/12/14 06:27:31;;;;;;;40.40;14.48;;;;;;;8.98;100.00;101679.25;8387381;28;20039;-64
2021/12/14 06:31:31;;;;;;;33.05;13.40;;;;;;;8.96;100.00;101673.06;8397538;28;20115;-64
2021/12/14 06:35:37;;;;;;;38.92;15.45;;;;;;;8.94;100.00;101675.03;8393146;28;20079;-64
2021/12/14 06:40:01;;;;;;;36.08;15.18;;;;;;;8.94;100.00;101683.97;8383967;28;20040;-64
2021/12/14 06:44:01;;;;;;;;;;;;;;;8.94;100.00;101696.63;8413284;28;20040;-64
2021/12/14 06:48:12;;;;;;;42.37;16.37;;;;;;;8.93;100.00;101702.94;8412208;28;19912;-64
2021/12/14 06:52:14;;;;;;;39.13;14.98;;;;;;;8.90;100.00;101709.41;8409266;28;20043;-64
2021/12/14 06:56:16;;;;;;;37.88;15.90;;;;;;;8.88;100.00;101703.25;8410071;28;20040;-64
2021/12/14 07:00:17;;;;;;;40.10;15.90;;;;;;;8.84;100.00;101704.44;8407923;28;20028;-65
2021/12/14 07:04:22;;;;;;;40.80;15.45;;;;;;;8.82;100.00;101701.00;8412327;28;20032;-65
2021/12/14 07:08:27;;;;;;;36.72;15.18;;;;;;;8.85;100.00;101699.91;8414190;28;20067;-64
2021/12/14 07:12:31;;;;;;;;;;;;;;;8.91;100.00;101721.09;8398212;28;20040;-64
2021/12/14 07:16:37;;;;;;;;;;;;;;;8.93;100.00;101714.63;8408063;28;20368;-64
2021/12/14 07:20:42;;;;;;;36.13;13.50;;;;;;;8.88;100.00;101729.38;8399736;28;19969;-64
2021/12/14 07:24:43;;;;;;;35.10;13.57;;;;;;;8.83;100.00;101736.88;8399493;28;20400;-64
2021/12/14 07:28:45;;;;;;;30.17;14.35;;;;;;;8.84;100.00;101736.78;8398371;28;20053;-64
2021/12/14 07:37:02;;;;;;;29.40;12.60;;;;;;;8.88;100.00;101748.25;8320138;27;20476;-63
2021/12/14 07:45:25;;;;;;;26.67;11.70;;;;;;;8.95;100.00;101757.66;8407829;27;20439;-64
2021/12/14 07:49:56;;;;;;;24.30;11.38;;;;;;;8.96;100.00;101754.00;8400883;27;20037;-64
2021/12/14 07:54:07;;;;;;;26.08;11.07;;;;;;;8.99;100.00;101769.97;8401836;27;20067;-64
2021/12/14 07:58:08;;;;;;;21.05;10.60;;;;;;;9.03;100.00;101769.69;8401862;27;20097;-64
2021/12/14 08:06:25;;;;;;;19.02;9.43;;;;;;;9.08;100.00;101794.53;8350539;27;20460;-64
2021/12/14 08:10:32;;;;;;;19.50;9.48;;;;;;;9.11;100.00;101798.84;8352096;28;20053;-64
2021/12/14 08:14:33;;;;;;;22.70;9.25;;;;;;;9.09;100.00;101817.00;8352096;28;20033;-64
2021/12/14 08:18:36;;;;;;;17.80;9.77;;;;;;;9.08;100.00;101815.25;8351779;28;20033;-64
2021/12/14 08:22:40;;;;;;;17.58;8.57;;;;;;;9.05;100.00;101788.47;8352680;28;20047;-64
2021/12/14 08:26:45;;;;;;;13.27;7.47;;;;;;;9.03;100.00;101793.09;8352675;28;20041;-64
2021/12/14 08:30:58;;;;;;;13.80;7.07;;;;;;;9.04;100.00;101809.19;8352335;28;20041;-64
2021/12/14 08:35:01;;;;;;;22.58;8.00;;;;;;;9.07;100.00;101808.13;8351715;28;20036;-64
2021/12/14 08:39:08;;;;;;;18.02;7.68;;;;;;;9.00;100.00;101806.78;8351428;28;20041;-64
2021/12/14 08:43:19;;;;;;;14.57;6.93;;;;;;;9.03;100.00;101798.50;8345042;28;20378;-64
2021/12/14 08:47:39;;;;;;;13.90;7.07;;;;;;;9.08;100.00;101801.75;8351553;28;20153;-64
2021/12/14 08:51:44;;;;;;;15.48;7.53;;;;;;;9.15;100.00;101805.81;8324441;28;20623;-64
2021/12/14 08:55:48;;;;;;;12.30;6.68;;;;;;;9.20;100.00;101814.44;8348619;28;20416;-64
2021/12/14 08:59:54;;;;;;;17.58;6.50;;;;;;;9.17;100.00;101815.53;8350564;28;20040;-64
2021/12/14 09:04:01;;;;;;;19.63;7.80;;;;;;;9.15;100.00;101820.13;8350055;28;20421;-64
2021/12/14 09:08:03;;;;;;;15.43;7.80;;;;;;;9.16;100.00;101818.31;8350434;28;20041;-64
2021/12/14 09:12:10;;;;;;;14.88;7.78;;;;;;;9.19;100.00;101824.38;8349906;28;20044;-64
2021/12/14 09:16:17;;;;;;;16.30;7.75;;;;;;;9.19;100.00;101813.59;8337328;28;20061;-64
2021/12/14 09:20:23;;;;;;;12.05;6.30;;;;;;;9.29;100.00;101813.84;8328193;28;20033;-64
2021/12/14 09:24:26;;;;;;;15.90;7.13;;;;;;;9.32;100.00;101814.50;8327761;28;20065;-64
2021/12/14 09:28:26;;;;;;;18.15;7.15;;;;;;;9.34;100.00;101819.81;8327964;28;20112;-64
2021/12/14 09:32:29;;;;;;;13.02;7.20;;;;;;;9.29;100.00;101803.94;8327402;28;20044;-64
2021/12/14 09:36:29;;;;;;;15.70;7.43;;;;;;;9.34;100.00;101801.75;8327748;28;20034;-64
2021/12/14 09:40:37;;;;;;;13.65;7.60;;;;;;;9.38;100.00;101805.13;8327554;28;20040;-64
2021/12/14 09:44:38;;;;;;;16.15;7.15;;;;;;;9.42;100.00;101817.44;8325676;28;20120;-64
2021/12/14 09:48:42;;;;;;;13.63;6.80;;;;;;;9.46;100.00;101821.69;8327038;28;20045;-64
2021/12/14 09:52:44;;;;;;;14.95;8.15;;;;;;;9.44;100.00;101820.94;8327341;28;20129;-64
2021/12/14 09:56:50;;;;;;;13.52;6.97;;;;;;;9.48;100.00;101830.53;8327111;28;20068;-64
2021/12/14 10:00:57;;;;;;;15.48;7.45;;;;;;;9.49;100.00;101829.59;8327040;28;20049;-64
2021/12/14 10:05:03;;;;;;;13.88;7.40;;;;;;;9.55;100.00;101821.09;8325241;28;20069;-64
2021/12/14 10:09:10;;;;;;;15.48;7.75;;;;;;;9.61;100.00;101820.69;8315624;28;20056;-64
2021/12/14 10:13:12;;;;;;;15.48;7.03;;;;;;;9.59;100.00;101820.78;8326674;28;20492;-64
2021/12/14 10:17:14;;;;;;;17.23;7.47;;;;;;;9.66;100.00;101830.19;8326124;28;20067;-64
2021/12/14 10:21:28;;;;;;;16.60;7.82;;;;;;;9.72;100.00;101828.91;8325016;28;20404;-64
2021/12/14 10:25:28;;;;;;;15.77;8.05;;;;;;;9.80;100.00;101827.41;8325758;28;20400;-64
2021/12/14 10:29:29;;;;;;;19.15;8.38;;;;;;;9.82;100.00;101830.00;8325303;28;20037;-64
2021/12/14 10:33:32;;;;;;;16.63;7.78;;;;;;;9.83;100.00;101832.63;8325598;28;20033;-66
2021/12/14 10:37:58;;;;;;;15.70;7.70;;;;;;;9.86;100.00;101837.81;8327899;28;20377;-66
2021/12/14 10:43:18;;;;;;;17.73;8.23;;;;;;;9.83;100.00;101826.38;8325946;28;20403;-66
2021/12/14 10:46:31;;;;;;;18.10;9.00;;;;;;;9.89;100.00;101828.66;8326888;28;20045;-66
2021/12/14 10:50:33;;;;;;;19.98;10.38;;;;;;;9.91;100.00;101830.28;8326634;28;20034;-66
2021/12/14 10:54:34;;;;;;;19.98;10.35;;;;;;;9.94;100.00;101834.59;8326503;28;20129;-66
2021/12/14 10:58:35;;;;;;;20.02;10.32;;;;;;;9.95;100.00;101825.53;8326438;28;20045;-66
2021/12/14 11:02:41;;;;;;;21.23;10.52;;;;;;;9.91;100.00;101818.59;8326118;28;20038;-66
2021/12/14 11:06:47;;;;;;;25.17;11.05;;;;;;;9.94;100.00;101823.78;8326442;28;20405;-66
2021/12/14 11:10:52;;;;;;;28.40;12.60;;;;;;;9.93;100.00;101822.94;8326145;28;20493;-66
2021/12/14 11:14:58;;;;;;;25.38;11.35;;;;;;;9.97;100.00;101815.47;8325915;28;20037;-66
2021/12/14 11:19:05;;;;;;;21.67;10.90;;;;;;;10.01;100.00;101806.22;8326264;28;20029;-66
2021/12/14 11:23:14;;;;;;;19.80;10.80;;;;;;;10.08;100.00;101799.44;8325796;28;20041;-66
2021/12/14 11:27:20;;;;;;;21.98;11.32;;;;;;;10.08;100.00;101804.84;8324613;28;20053;-66
2021/12/14 11:31:30;;;;;;;21.23;11.18;;;;;;;10.08;100.00;101799.44;8324364;28;20164;-66
2021/12/14 11:35:33;;;;;;;25.25;13.00;;;;;;;10.08;100.00;101795.84;8325953;28;20041;-66
2021/12/14 11:39:45;;;;;;;27.20;13.77;;;;;;;10.07;100.00;101786.91;8325897;28;20041;-66
2021/12/14 11:43:50;;;;;;;22.55;11.18;;;;;;;10.13;100.00;101785.59;8328068;28;20369;-63
2021/12/14 11:47:58;;;;;;;21.90;11.00;;;;;;;10.24;100.00;101785.72;8329896;28;20088;-63
2021/12/14 11:51:58;;;;;;;21.23;11.07;;;;;;;10.24;100.00;101783.88;8329628;28;20042;-63
2021/12/14 11:56:06;;;;;;;19.20;10.63;;;;;;;10.31;100.00;101790.56;8326506;28;20048;-66
2021/12/14 12:00:15;;;;;;;22.73;11.18;;;;;;;10.28;100.00;101785.38;8316864;28;20624;-66
2021/12/14 12:04:33;;;;;;;24.30;12.73;;;;;;;10.36;100.00;101791.13;8315451;28;20112;-66
2021/12/14 12:09:36;;;;;;;20.80;11.32;;;;;;;10.38;100.00;101791.00;8324755;28;20049;-66
2021/12/14 12:12:55;;;;;;;22.42;10.80;;;;;;;10.44;100.00;101788.75;8324579;28;20045;-66
2021/12/14 12:17:08;;;;;;;17.05;9.60;;;;;;;10.50;100.00;101784.75;8324520;28;20547;-66
2021/12/14 12:21:09;;;;;;;19.40;10.90;;;;;;;10.51;99.71;101781.03;8324090;28;20041;-64
2021/12/14 12:25:14;;;;;;;19.38;10.52;;;;;;;10.51;100.00;101776.50;8323582;28;20163;-64
2021/12/14 12:29:17;;;;;;;18.55;10.43;;;;;;;10.49;99.93;101764.94;8322995;28;20060;-64
2021/12/14 12:37:42;;;;;;;21.15;10.57;;;;;;;10.56;99.61;101773.47;8402429;27;20462;-64
2021/12/14 12:41:56;;;;;;;16.05;9.48;;;;;;;10.49;99.58;101766.78;8400661;27;20035;-64
2021/12/14 12:46:09;;;;;;;23.65;11.02;;;;;;;10.55;99.43;101772.59;8400337;27;20029;-64
2021/12/14 12:50:10;;;;;;;18.27;10.77;;;;;;;10.56;99.17;101768.94;8400032;27;20047;-64
2021/12/14 12:54:15;;;;;;;19.13;10.77;;;;;;;10.56;100.00;101768.94;8366181;27;20033;-64
2021/12/14 12:58:17;;;;;;;23.70;11.23;;;;;;;10.61;99.70;101769.47;8351551;28;20045;-64
2021/12/14 13:02:34;;;;;;;23.00;11.65;;;;;;;10.59;99.00;101774.13;8346586;28;20040;-64
2021/12/14 13:06:35;;;;;;;21.20;11.60;;;;;;;10.61;99.28;101766.75;8362856;27;20053;-64
2021/12/14 13:10:58;;;;;;;21.73;10.25;;;;;;;10.64;99.03;101766.53;8399029;27;20035;-64
2021/12/14 13:14:58;;;;;;;21.23;11.02;;;;;;;10.69;98.97;101764.38;8390065;27;20041;-64
2021/12/14 13:19:11;;;;;;;21.45;10.55;;;;;;;10.64;99.90;101765.69;8393529;27;20058;-64
2021/12/14 13:23:12;;;;;;;23.17;11.38;;;;;;;10.68;100.00;101773.47;8332175;28;20042;-64
2021/12/14 13:27:21;;;;;;;18.98;11.35;;;;;;;10.67;99.60;101773.59;8345428;28;20698;-64
2021/12/14 13:31:26;;;;;;;18.88;10.45;;;;;;;10.71;99.14;101772.38;8337664;28;20572;-64
2021/12/14 13:35:31;;;;;;;20.10;10.40;;;;;;;10.73;99.34;101778.56;8372919;28;20082;-64
2021/12/14 13:39:33;;;;;;;26.90;11.38;;;;;;;10.78;99.20;101776.38;8349445;28;20572;-65
2021/12/14 13:43:38;;;;;;;25.67;11.52;;;;;;;10.84;98.39;101779.50;8344607;28;20047;-65
2021/12/14 13:47:39;;;;;;;22.45;10.93;;;;;;;10.79;98.57;101780.78;8339317;28;20033;-65
2021/12/14 13:51:40;;;;;;;18.60;11.50;;;;;;;10.83;98.85;101772.34;8330258;28;20064;-65
2021/12/14 13:55:43;;;;;;;25.27;10.18;;;;;;;10.91;98.53;101786.19;8333517;28;20451;-65
2021/12/14 13:59:44;;;;;;;21.03;10.60;;;;;;;10.93;97.67;101792.38;8329716;28;20050;-65
2021/12/14 14:03:49;;;;;;;21.30;11.10;;;;;;;10.83;98.48;101787.72;8347998;28;20045;-65
2021/12/14 14:07:53;;;;;;;22.45;11.30;;;;;;;10.84;98.83;101778.63;8327477;28;20788;-65
2021/12/14 14:12:14;;;;;;;24.95;11.82;;;;;;;10.82;99.69;101786.84;8339411;28;20460;-65
2021/12/14 14:16:15;;;;;;;19.77;10.77;;;;;;;10.80;100.00;101786.09;8342169;28;20059;-65
2021/12/14 14:20:21;;;;;;;21.38;12.13;;;;;;;10.81;100.00;101793.25;8348873;28;20548;-65
2021/12/14 14:24:27;;;;;;;18.77;10.57;;;;;;;10.82;100.00;101792.25;8357085;28;20040;-65
2021/12/14 14:28:35;;;;;;;22.60;11.50;;;;;;;10.80;100.00;101794.19;8327911;28;20046;-65
2021/12/14 14:33:09;;;;;;;24.25;11.90;;;;;;;10.76;100.00;101798.13;8314204;28;20033;-65
2021/12/14 14:37:14;;;;;;;26.73;12.38;;;;;;;10.76;100.00;101798.13;8324582;28;20035;-65
2021/12/14 14:45:31;;;;;;;20.38;10.65;;;;;;;10.77;100.00;101793.59;8345806;27;20376;-64
2021/12/14 14:53:44;;;;;;;20.35;10.68;;;;;;;10.76;100.00;101800.81;8411801;27;20517;-63
2021/12/14 14:57:48;;;;;;;21.40;11.70;;;;;;;10.85;100.00;101794.75;8385934;28;20045;-63
2021/12/14 15:01:49;;;;;;;19.27;10.80;;;;;;;10.74;100.00;101805.47;8386668;28;20125;-63
2021/12/14 15:05:56;;;;;;;22.40;11.40;;;;;;;10.76;100.00;101810.75;8377301;28;20037;-63
2021/12/14 15:10:13;;;;;;;19.55;11.70;;;;;;;10.68;100.00;101816.75;8372104;28;20036;-64
2021/12/14 15:14:27;;;;;;;24.35;11.90;;;;;;;10.58;100.00;101821.06;8370559;28;20140;-64
2021/12/14 15:19:08;;;;;;;17.35;10.50;;;;;;;10.58;100.00;101821.06;8380166;28;20044;-64
2021/12/14 15:23:09;;;;;;;18.27;10.23;;;;;;;10.52;100.00;101816.09;8337560;28;20048;-64
2021/12/14 15:31:24;;;;;;;22.75;11.80;;;;;;;10.56;100.00;101823.03;8472837;27;20120;-64
2021/12/14 15:35:32;;;;;;;27.20;14.43;;;;;;;10.60;100.00;101824.53;8479976;27;20039;-64
2021/12/14 15:39:37;;;;;;;25.08;12.65;;;;;;;10.69;100.00;101818.47;8473778;27;20036;-64
2021/12/14 15:43:45;;;;;;;22.73;10.48;;;;;;;10.69;100.00;101818.47;8477720;27;20053;-64
2021/12/14 15:48:09;;;;;;;21.92;11.35;;;;;;;10.70;100.00;101820.19;8466157;27;20082;-64
2021/12/14 15:52:16;;;;;;;49.17;25.55;;;;;;;10.67;100.00;101812.28;8478169;27;20039;-64
2021/12/14 15:56:22;;;;;;;30.67;15.88;;;;;;;10.67;100.00;101817.72;8474027;27;20621;-64
2021/12/14 16:00:22;;;;;;;23.25;11.88;;;;;;;10.71;100.00;101819.25;8444977;27;20166;-64
2021/12/14 16:04:30;;;;;;;24.38;11.52;;;;;;;10.59;100.00;101828.22;8468457;27;20043;-66
2021/12/14 16:08:32;;;;;;;23.50;12.13;;;;;;;10.53;100.00;101825.09;8438934;27;20067;-66
2021/12/14 16:16:48;;;;;;;22.58;11.75;;;;;;;10.53;100.00;101834.06;8396107;27;20393;-66
2021/12/14 16:20:54;;;;;;;24.77;12.70;;;;;;;10.51;100.00;101833.31;8361099;28;20048;-66
2021/12/14 16:25:16;;;;;;;44.83;21.00;;;;;;;10.45;100.00;101831.03;8366581;28;20338;-66
2021/12/14 16:29:17;;;;;;;42.38;21.52;;;;;;;10.51;100.00;101837.84;8372128;28;20106;-66
2021/12/14 16:33:22;;;;;;;25.55;15.45;;;;;;;10.48;100.00;101836.22;8364807;28;20124;-63
2021/12/14 16:37:23;;;;;;;29.50;15.18;;;;;;;10.42;100.00;101850.16;8387067;28;20552;-63
2021/12/14 16:41:28;;;;;;;28.50;16.05;;;;;;;10.37;100.00;101855.00;8359743;28;20413;-63
2021/12/14 16:45:29;;;;;;;30.65;15.95;;;;;;;10.37;100.00;101846.91;8393374;28;20093;-63
2021/12/14 16:49:30;;;;;;;30.70;16.15;;;;;;;10.34;100.00;101849.81;8368676;28;20041;-63
2021/12/14 16:53:31;;;;;;;30.10;17.45;;;;;;;10.27;100.00;101858.50;8386447;28;20025;-63
2021/12/14 16:57:32;;;;;;;31.25;16.27;;;;;;;10.20;100.00;101849.94;8394510;28;20044;-63
2021/12/14 17:01:32;;;;;;;29.45;15.43;;;;;;;10.18;100.00;101856.44;8393007;28;20442;-63
2021/12/14 17:05:41;;;;;;;27.88;16.15;;;;;;;10.29;100.00;101856.53;8357549;28;20141;-63
2021/12/14 17:09:41;;;;;;;28.42;15.30;;;;;;;10.28;100.00;101852.09;8352361;28;20560;-63
2021/12/14 17:13:51;;;;;;;26.23;14.20;;;;;;;10.24;100.00;101862.25;8361582;28;20486;-63
2021/12/14 17:17:52;;;;;;;26.45;14.95;;;;;;;10.29;100.00;101862.81;8388473;28;20048;-63
2021/12/14 17:21:57;;;;;;;25.90;14.38;;;;;;;10.33;100.00;101856.22;8390650;28;20048;-63
2021/12/14 17:26:04;;;;;;;30.58;14.65;;;;;;;10.27;100.00;101864.75;8358084;28;20116;-63
2021/12/14 17:30:11;;;;;;;26.95;14.00;;;;;;;10.29;100.00;101865.50;8343172;28;20041;-63
2021/12/14 17:34:16;;;;;;;30.65;14.57;;;;;;;10.24;100.00;101875.75;8343931;28;20050;-63
2021/12/14 17:38:16;;;;;;;27.50;15.35;;;;;;;10.38;100.00;101872.13;8369669;28;20052;-63
2021/12/14 17:42:24;;;;;;;31.88;16.60;;;;;;;10.28;100.00;101874.56;8349839;28;20132;-66
2021/12/14 17:46:25;;;;;;;32.38;17.77;;;;;;;10.27;100.00;101872.00;8335512;28;20039;-66
2021/12/14 17:50:33;;;;;;;26.20;15.48;;;;;;;10.28;100.00;101866.47;8357665;28;20043;-66
2021/12/14 17:54:43;;;;;;;29.40;17.02;;;;;;;10.26;100.00;101868.44;8320444;28;20034;-66
2021/12/14 17:58:43;;;;;;;26.92;14.43;;;;;;;10.24;100.00;101864.09;8306376;28;20057;-66
2021/12/14 18:03:08;;;;;;;26.77;14.55;;;;;;;10.20;100.00;101863.44;8309231;28;20589;-66
2021/12/14 18:07:11;;;;;;;24.80;14.70;;;;;;;10.19;100.00;101871.66;8319907;28;20507;-64
2021/12/14 18:11:16;;;;;;;27.20;13.23;;;;;;;10.16;100.00;101872.75;8309186;28;20046;-64
2021/12/14 18:15:17;;;;;;;22.42;12.90;;;;;;;10.15;100.00;101876.41;8301416;28;20041;-64
2021/12/14 18:19:21;;;;;;;19.45;11.27;;;;;;;10.19;100.00;101886.03;8328285;28;20132;-64
2021/12/14 18:23:26;;;;;;;22.77;12.30;;;;;;;10.22;100.00;101872.31;8299712;28;20091;-64
2021/12/14 18:27:35;;;;;;;20.13;11.73;;;;;;;10.28;100.00;101882.69;8304637;28;20522;-64
2021/12/14 18:31:36;;;;;;;18.98;11.02;;;;;;;10.32;100.00;101889.63;8314930;28;20438;-64
2021/12/14 18:35:36;;;;;;;19.42;11.23;;;;;;;10.32;100.00;101886.94;8331556;28;20056;-64
2021/12/14 18:39:45;;;;;;;17.30;11.57;;;;;;;10.27;100.00;101888.22;8331103;28;20080;-64
2021/12/14 18:43:47;;;;;;;18.92;11.40;;;;;;;10.24;100.00;101897.38;8332035;28;20029;-64
2021/12/14 18:52:05;;;;;;;18.48;10.75;;;;;;;10.18;100.00;101887.00;8337929;27;20390;-64
2021/12/14 18:56:10;;;;;;;25.00;12.55;;;;;;;10.08;100.00;101890.44;8331815;28;20037;-64
2021/12/14 19:00:12;;;;;;;;;;;;;;;10.02;100.00;101897.09;8344334;28;20041;-64
2021/12/14 19:04:16;;;;;;;25.40;14.18;;;;;;;9.99;100.00;101897.28;8316513;28;20340;-64
2021/12/14 19:08:18;;;;;;;22.63;13.43;;;;;;;10.05;100.00;101902.28;8339088;28;20448;-64
2021/12/14 19:12:31;;;;;;;19.70;13.13;;;;;;;10.06;100.00;101904.00;8342633;28;20298;-64
2021/12/14 19:16:36;;;;;;;23.52;12.48;;;;;;;10.07;100.00;101902.22;8344190;28;20037;-64
2021/12/14 19:20:40;;;;;;;;;;;;;;;10.08;100.00;101903.94;8343626;28;20036;-64
2021/12/14 19:24:42;;;;;;;28.55;17.08;;;;;;;9.99;100.00;101900.00;8342543;28;20402;-64
2021/12/14 19:28:49;;;;;;;33.95;19.52;;;;;;;10.03;100.00;101906.91;8325382;28;20552;-64
2021/12/14 19:32:55;;;;;;;43.20;23.95;;;;;;;10.06;100.00;101908.56;8333595;28;20041;-66
2021/12/14 19:36:56;;;;;;;29.70;18.67;;;;;;;9.99;100.00;101908.97;8344923;28;20041;-66
2021/12/14 19:41:04;;;;;;;26.70;16.33;;;;;;;10.02;100.00;101902.50;8339600;28;20077;-66
2021/12/14 19:45:10;;;;;;;27.33;16.48;;;;;;;9.97;100.00;101910.03;8316412;28;20457;-66